Airfield :
LOGIN :

Register | Disclaimer

   EN    FR    IT 

 










Legend :    VFR   Marginal VFR   IFR   Intensive IFR   Very Intensive IFR
Visi :
Ceiling :
>= 8 km
>= 3000ft
5 to 8 km
1000 to 3000 ft
1500m to 5 km
500 to 1000 ft
800 to 1500m
200 to 500 ft
< 800m
< 200 ft
Symbols :   Thunderstorms  Fog  Heavy snow  Heavy precipitations  Wind > 20 kt
SIGMETs :     Misc.  Thunderstorms  Icing  Turbulence  Mountain Waves  Volcanic Ashes







- Airport Elevation : 26 ft
- IATA code : GLA
- Download approach charts


EGPF - Glasgow

CURRENT METAR :
  • 201520Z AUTO 06014KT 9999 -RA SCT028/// BKN032/// BKN043/// //////CB 06/03 Q1019

EXPIRED METARs :
  • 201450Z AUTO 09013KT 9999 -RA BKN028/// BKN049/// //////TCU 07/03 Q1019
  • 201420Z AUTO 06013KT 9999 FEW040/// SCT048/// //////CB 06/03 Q1020
  • 201350Z AUTO 06018KT 9999 -RA FEW031/// SCT043/// //////TCU 07/04 Q1020
  • 201320Z AUTO 06015G25KT 7000 -RA SCT025/// BKN029/// BKN035/// //////CB 06/04 Q1021
  • 201250Z AUTO 07013KT 9999 -RA SCT018/// BKN024/// BKN029/// //////CB 06/04 Q1021 RERA

TAF TAF EGPF
Valid from the 20 at 12:00 until the 21 at 12:00 UTC


201055Z 2012/2112 06014KT 9999 SCT025
PROB40
TEMPO 2012/2112 07018G28KT 7000 SHRA
PROB40
TEMPO 2021/2112 BKN014
ATIS : +44 141 887 7449
No reported NOTAMs for that airfield.
1 SIGMET reported for the Scottish FIR (EGPX) :
 
Severe mountain waves
EGPX SIGMET 02 VALID 201300/201700 EGRR
EGPX SCOTTISH FIR SEV MTW FCST WI N5604 W00532 - N5559 W00245 - N5500 W00218 - N5500 W00525 - N5604 W00532 FL030/120 STNR NC=



MET'MAP, your aeronautical weather chart ! - Copyright ORBIFLY December 2007 - Disclaimer

ORBIFLY MET'MAP TEAM :

Programming & Development : Alexandra Zaïnal
Concept & Development : Baudouin d'Aumeries
Co-Development & Prog : Marc-Olivier Méhu
Technical & hardware support : Manuel Goepfert

Contact : metmap@orbifly.com




SOURCES & CREDITS :

   NOAA